KBGD/BGD METAR and TAF weather

Enter ICAO airport designator
Station Type Date Time Source
KBGD METAR 2022/06/26 08:28 UTC NOAA

KBGD 260828Z AUTO 04018G26KT 10SM VCTS -RA FEW030 SCT060 OVC095 21/16 A3025 RMK AO2 PK WND 04026/0828 LTG DSNT ALQDS RAB07 P0007 T02060161


Station Type Date Time Source
KBGD Decoded METAR 2022/06/26 08:28 UTC NOAA

BORGER HUTCHINSON CO AIRPORT , TX, United States (KBGD) 35-42N 101-24W 927M
Jun 26, 2022 - 04:28 AM EDT / 2022.06.26 0828 UTC
Wind: from the NE (040 degrees) at 21 MPH (18 KT) gusting to 30 MPH (26 KT):0
Visibility: 10 mile(s):0
Sky conditions: overcast
Weather: thunder in the vicinity; light rain; Lightning observed
Precipitation last hour: 0.07 inches
Temperature: 69.1 F (20.6 C)
Dew Point: 61.0 F (16.1 C)
Relative Humidity: 75%
Pressure (altimeter): 30.25 in. Hg (1024 hPa)
ob: KBGD 260828Z AUTO 04018G26KT 10SM VCTS -RA FEW030 SCT060 OVC095 21/16 A3025 RMK AO2 PK WND 04026/0828 LTG DSNT ALQDS RAB07 P0007 T02060161
cycle: 8

Station Type Date Time Source
KBGD TAF UTC NOAA

Error!

Example: see airport list